createdAt,value
2022-12-29T00:01:53.651Z,25.80
2022-12-29T00:04:21.512Z,24.02
2022-12-29T00:06:49.581Z,19.63
2022-12-29T00:09:17.816Z,17.58
2022-12-29T00:11:45.696Z,22.17
2022-12-29T00:14:32.452Z,15.73
2022-12-29T00:17:00.336Z,17.73
2022-12-29T00:19:46.347Z,16.70
2022-12-29T00:22:33.676Z,14.30
2022-12-29T00:25:20.874Z,15.32
2022-12-29T00:28:07.931Z,16.12
2022-12-29T00:30:55.408Z,19.15
2022-12-29T00:33:46.015Z,15.73
2022-12-29T00:36:18.045Z,16.48
2022-12-29T00:39:36.260Z,18.05
2022-12-29T00:42:24.112Z,15.38
2022-12-29T00:44:51.934Z,19.87
2022-12-29T00:47:19.413Z,20.57
2022-12-29T00:49:46.936Z,21.15
2022-12-29T00:52:15.264Z,16.80
2022-12-29T00:54:45.947Z,22.87
2022-12-29T00:57:13.683Z,19.50
2022-12-29T00:59:43.027Z,18.87
2022-12-29T01:02:11.820Z,19.08
2022-12-29T01:04:39.500Z,17.95
2022-12-29T01:07:07.497Z,19.80
2022-12-29T01:09:53.830Z,20.08
2022-12-29T01:12:41.540Z,17.90
2022-12-29T01:15:11.667Z,24.27
2022-12-29T01:17:39.651Z,18.70
2022-12-29T01:20:07.697Z,22.83
2022-12-29T01:22:36.443Z,20.52
2022-12-29T01:25:05.755Z,17.73
2022-12-29T01:27:33.311Z,18.58
2022-12-29T01:30:00.738Z,19.37
2022-12-29T01:32:28.502Z,20.98
2022-12-29T01:34:55.985Z,20.42
2022-12-29T01:37:23.496Z,17.97
2022-12-29T01:39:51.230Z,16.85
2022-12-29T01:42:23.535Z,17.45
2022-12-29T01:44:54.303Z,18.42
2022-12-29T01:47:36.875Z,21.50
2022-12-29T01:50:08.235Z,21.27
2022-12-29T01:52:39.802Z,16.55
2022-12-29T01:55:09.959Z,19.48
2022-12-29T01:57:41.804Z,21.35
2022-12-29T02:00:12.427Z,21.33
2022-12-29T02:02:42.785Z,18.53
2022-12-29T02:05:35.305Z,16.27
2022-12-29T02:08:03.315Z,18.77
2022-12-29T02:10:34.117Z,18.27
2022-12-29T02:13:01.780Z,19.05
2022-12-29T02:16:04.332Z,18.13
2022-12-29T02:19:05.244Z,18.70
2022-12-29T02:21:35.962Z,18.42
2022-12-29T02:24:16.250Z,16.60
2022-12-29T02:26:59.009Z,19.08
2022-12-29T02:30:01.773Z,21.80
2022-12-29T02:32:48.386Z,18.45
2022-12-29T02:35:27.872Z,18.77
2022-12-29T02:38:11.126Z,19.73
2022-12-29T02:41:03.629Z,18.87
2022-12-29T02:43:48.917Z,17.27
2022-12-29T02:46:34.755Z,19.20
2022-12-29T02:49:15.181Z,19.25
2022-12-29T02:52:00.951Z,18.40
2022-12-29T02:54:44.145Z,19.05
2022-12-29T02:57:15.922Z,21.73
2022-12-29T02:59:47.897Z,18.87
2022-12-29T03:02:25.603Z,21.42
2022-12-29T03:05:12.280Z,20.80
2022-12-29T03:07:51.589Z,19.65
2022-12-29T03:10:42.600Z,20.93
2022-12-29T03:13:38.943Z,23.58
2022-12-29T03:16:24.687Z,17.75
2022-12-29T03:19:16.500Z,19.48
2022-12-29T03:22:11.931Z,25.37
2022-12-29T03:24:45.700Z,19.20
2022-12-29T03:27:19.880Z,19.42
2022-12-29T03:29:55.016Z,18.60
2022-12-29T03:32:26.852Z,17.65
2022-12-29T03:34:55.921Z,16.35
2022-12-29T03:37:29.684Z,20.20
2022-12-29T03:39:58.409Z,22.85
2022-12-29T03:42:31.317Z,24.17
2022-12-29T03:44:59.078Z,22.33
2022-12-29T03:47:27.312Z,22.15
2022-12-29T03:49:54.956Z,21.20
2022-12-29T03:52:22.979Z,23.08
2022-12-29T03:54:52.037Z,27.65
2022-12-29T03:57:19.743Z,25.10
2022-12-29T03:59:47.691Z,22.98
2022-12-29T04:02:15.658Z,24.07
2022-12-29T04:04:43.690Z,21.33
2022-12-29T04:07:11.321Z,27.75
2022-12-29T04:09:38.929Z,27.42
2022-12-29T04:12:07.587Z,25.80
2022-12-29T04:14:35.814Z,22.63
2022-12-29T04:17:03.321Z,22.95
2022-12-29T04:19:31.560Z,23.55
2022-12-29T04:21:59.236Z,29.35
2022-12-29T04:24:26.801Z,19.98
2022-12-29T04:26:55.672Z,22.67
2022-12-29T04:29:23.794Z,25.20
2022-12-29T04:31:51.816Z,25.65
2022-12-29T04:34:20.032Z,21.37
2022-12-29T04:36:48.001Z,21.90
2022-12-29T04:39:15.502Z,31.37
2022-12-29T04:41:43.786Z,25.48
2022-12-29T04:44:11.987Z,25.60
2022-12-29T04:46:39.873Z,23.92
2022-12-29T04:49:09.825Z,20.25
2022-12-29T04:51:38.988Z,23.33
2022-12-29T04:54:08.016Z,23.05
2022-12-29T04:56:36.109Z,23.60
2022-12-29T04:59:03.758Z,26.70
2022-12-29T05:01:31.457Z,24.10
2022-12-29T05:03:59.460Z,26.63
2022-12-29T05:06:27.055Z,27.55
2022-12-29T05:08:54.573Z,24.42
2022-12-29T05:11:22.464Z,25.50
2022-12-29T05:13:50.292Z,22.55
2022-12-29T05:16:18.010Z,20.93
2022-12-29T05:18:46.543Z,28.45
2022-12-29T05:21:15.355Z,25.25
2022-12-29T05:23:43.476Z,24.80
2022-12-29T05:26:11.406Z,23.10
2022-12-29T05:28:39.498Z,26.77
2022-12-29T05:31:07.291Z,23.80
2022-12-29T05:33:35.684Z,21.30
2022-12-29T05:36:08.222Z,26.98
2022-12-29T05:38:37.244Z,22.65
2022-12-29T05:41:04.915Z,27.50
2022-12-29T05:43:33.508Z,27.85
2022-12-29T05:46:01.754Z,26.52
2022-12-29T05:48:32.994Z,27.48
2022-12-29T05:51:05.728Z,26.58
2022-12-29T05:53:33.324Z,30.33
2022-12-29T05:56:01.294Z,25.92
2022-12-29T05:58:29.516Z,26.17
2022-12-29T06:00:57.038Z,25.30
2022-12-29T06:03:25.065Z,30.12
2022-12-29T06:05:53.176Z,23.47
2022-12-29T06:08:20.789Z,29.37
2022-12-29T06:10:49.496Z,28.92
2022-12-29T06:13:17.467Z,30.67
2022-12-29T06:15:45.388Z,26.95
2022-12-29T06:18:19.551Z,24.13
2022-12-29T06:20:48.258Z,26.27
2022-12-29T06:23:17.613Z,28.55
2022-12-29T06:25:45.802Z,30.48
2022-12-29T06:28:13.564Z,30.90
2022-12-29T06:30:45.082Z,26.93
2022-12-29T06:33:13.663Z,31.20
2022-12-29T06:35:43.756Z,31.52
2022-12-29T06:38:11.574Z,24.45
2022-12-29T06:40:39.120Z,27.65
2022-12-29T06:43:07.383Z,25.60
2022-12-29T06:45:35.166Z,25.50
2022-12-29T06:48:02.735Z,29.37
2022-12-29T06:50:30.663Z,30.12
2022-12-29T06:52:58.160Z,28.83
2022-12-29T06:55:26.004Z,30.30
2022-12-29T06:57:59.387Z,26.73
2022-12-29T07:00:26.951Z,26.87
2022-12-29T07:02:56.727Z,27.73
2022-12-29T07:05:24.488Z,26.73
2022-12-29T07:07:51.996Z,32.83
2022-12-29T07:10:20.116Z,31.65
2022-12-29T07:12:47.625Z,34.67
2022-12-29T07:15:15.407Z,33.42
2022-12-29T07:17:43.432Z,31.73
2022-12-29T07:20:11.542Z,31.50
2022-12-29T07:22:39.684Z,31.83
2022-12-29T07:25:07.789Z,29.77
2022-12-29T07:27:35.280Z,26.55
2022-12-29T07:30:02.992Z,38.42
2022-12-29T07:32:33.917Z,30.37
2022-12-29T07:35:01.702Z,31.73
2022-12-29T07:37:29.287Z,40.65
2022-12-29T07:39:57.162Z,36.22
2022-12-29T07:42:24.667Z,36.38
2022-12-29T07:44:52.318Z,36.40
2022-12-29T07:47:20.309Z,34.05
2022-12-29T07:49:48.374Z,37.38
2022-12-29T07:52:15.863Z,33.60
2022-12-29T07:54:43.652Z,34.42
2022-12-29T07:57:11.214Z,36.03
2022-12-29T07:59:38.672Z,35.72
2022-12-29T08:02:06.598Z,38.58
2022-12-29T08:04:34.534Z,29.70
2022-12-29T08:07:02.098Z,31.90
2022-12-29T08:09:29.651Z,29.90
2022-12-29T08:11:57.491Z,34.00
2022-12-29T08:14:24.958Z,30.27
2022-12-29T08:16:52.459Z,34.17
2022-12-29T08:19:20.449Z,34.20
2022-12-29T08:21:47.985Z,32.23
2022-12-29T08:24:15.539Z,34.83
2022-12-29T08:26:43.330Z,34.25
2022-12-29T08:29:10.918Z,35.95
2022-12-29T08:31:38.733Z,34.50
2022-12-29T08:34:06.861Z,34.77
2022-12-29T08:36:34.459Z,35.00
2022-12-29T08:39:02.044Z,37.35
2022-12-29T08:41:30.049Z,35.05
2022-12-29T08:43:57.809Z,35.88
2022-12-29T08:46:25.377Z,35.20
2022-12-29T08:48:54.648Z,36.05
2022-12-29T08:51:24.815Z,31.77
2022-12-29T08:53:53.664Z,34.42
2022-12-29T08:56:22.031Z,30.12
2022-12-29T08:58:49.655Z,28.27
2022-12-29T09:01:18.632Z,28.25
2022-12-29T09:04:17.750Z,31.27
2022-12-29T09:06:40.257Z,37.72
2022-12-29T09:09:08.406Z,35.58
2022-12-29T09:11:36.347Z,37.50
2022-12-29T09:14:04.462Z,43.58
2022-12-29T09:16:32.256Z,41.22
2022-12-29T09:19:00.283Z,38.50
2022-12-29T09:21:27.878Z,39.50
2022-12-29T09:23:55.540Z,35.67
2022-12-29T09:26:23.387Z,32.42
2022-12-29T09:28:51.142Z,33.28
2022-12-29T09:31:18.743Z,29.52
2022-12-29T09:33:46.589Z,32.65
2022-12-29T09:36:14.163Z,30.13
2022-12-29T09:38:41.715Z,30.85
2022-12-29T09:41:42.892Z,28.98
2022-12-29T09:44:21.836Z,31.25
2022-12-29T09:46:52.402Z,26.40
2022-12-29T09:49:33.233Z,29.53
2022-12-29T09:52:07.066Z,27.65
2022-12-29T09:54:43.096Z,35.75
2022-12-29T09:57:38.479Z,39.20
2022-12-29T10:00:14.705Z,37.65
2022-12-29T10:02:50.356Z,28.23
2022-12-29T10:05:51.275Z,23.60
2022-12-29T10:08:37.830Z,28.25
2022-12-29T10:11:23.557Z,29.50
2022-12-29T10:14:23.774Z,33.05
2022-12-29T10:16:55.253Z,31.37
2022-12-29T10:19:43.284Z,24.15
2022-12-29T10:22:24.897Z,26.65
2022-12-29T10:24:56.808Z,22.45
2022-12-29T10:27:25.128Z,21.65
2022-12-29T10:29:59.144Z,19.80
2022-12-29T10:32:41.539Z,22.75
2022-12-29T10:35:20.111Z,21.70
2022-12-29T10:37:53.356Z,25.37
2022-12-29T10:40:29.763Z,26.65
2022-12-29T10:42:59.215Z,35.23
2022-12-29T10:45:31.494Z,33.90
2022-12-29T10:48:20.412Z,32.03
2022-12-29T10:50:49.617Z,39.88
2022-12-29T10:53:27.377Z,36.28
2022-12-29T10:55:56.947Z,38.50
2022-12-29T10:58:26.280Z,38.58
2022-12-29T11:00:55.591Z,38.13
2022-12-29T11:03:42.769Z,24.30
2022-12-29T11:06:20.873Z,20.27
2022-12-29T11:08:57.555Z,21.30
2022-12-29T11:11:37.638Z,27.35
2022-12-29T11:14:20.049Z,18.75
2022-12-29T11:17:06.239Z,23.92
2022-12-29T11:19:40.501Z,24.52
2022-12-29T11:22:26.000Z,27.33
2022-12-29T11:24:55.338Z,33.70
2022-12-29T11:27:25.813Z,31.55
2022-12-29T11:29:55.060Z,27.67
2022-12-29T11:32:29.170Z,28.12
2022-12-29T11:35:02.782Z,22.83
2022-12-29T11:37:39.588Z,24.45
2022-12-29T11:40:22.102Z,19.77
2022-12-29T11:42:53.734Z,21.23
2022-12-29T11:45:24.138Z,25.60
2022-12-29T11:47:57.100Z,21.73
2022-12-29T11:50:32.051Z,22.50
2022-12-29T11:53:03.214Z,21.65
2022-12-29T11:55:32.306Z,21.92
2022-12-29T11:58:03.484Z,23.12
2022-12-29T12:00:35.784Z,23.80
2022-12-29T12:03:21.781Z,22.48
2022-12-29T12:05:58.232Z,18.62
2022-12-29T12:08:49.784Z,27.10
2022-12-29T12:11:37.919Z,27.23
2022-12-29T12:14:22.939Z,17.10
2022-12-29T12:17:03.592Z,18.83
2022-12-29T12:19:50.967Z,20.73
2022-12-29T12:22:35.470Z,24.58
2022-12-29T12:25:24.357Z,40.47
2022-12-29T12:28:01.957Z,29.87
2022-12-29T12:30:37.687Z,24.95
2022-12-29T12:33:16.109Z,24.83
2022-12-29T12:35:53.785Z,24.60
2022-12-29T12:38:39.710Z,25.10
2022-12-29T12:41:25.584Z,20.90
2022-12-29T12:44:15.605Z,21.27
2022-12-29T12:46:52.340Z,23.12
2022-12-29T12:49:57.512Z,23.77
2022-12-29T12:52:42.256Z,21.48
2022-12-29T12:55:35.935Z,21.20
2022-12-29T12:58:22.031Z,21.45
2022-12-29T13:00:58.286Z,24.52
2022-12-29T13:03:48.276Z,22.20
2022-12-29T13:06:37.064Z,25.00
2022-12-29T13:09:10.700Z,24.43
2022-12-29T13:12:02.886Z,26.75
2022-12-29T13:14:42.799Z,25.02
2022-12-29T13:17:20.641Z,30.12
2022-12-29T13:19:55.572Z,30.48
2022-12-29T13:22:46.976Z,26.20
2022-12-29T13:25:38.400Z,44.97
2022-12-29T13:28:36.038Z,33.58
2022-12-29T13:31:33.166Z,32.28
2022-12-29T13:34:28.371Z,31.05
2022-12-29T13:37:02.614Z,32.43
2022-12-29T13:39:36.594Z,30.92
2022-12-29T13:42:06.456Z,90.72
2022-12-29T13:44:44.412Z,131.30
2022-12-29T13:47:36.857Z,104.32
2022-12-29T13:50:07.831Z,304.03
2022-12-29T13:52:53.061Z,240.23
2022-12-29T13:55:48.459Z,143.90
2022-12-29T13:58:38.067Z,36.05
2022-12-29T14:01:20.116Z,23.73
2022-12-29T14:03:50.654Z,57.67
2022-12-29T14:06:33.145Z,91.37
2022-12-29T14:09:06.443Z,282.25
2022-12-29T14:11:36.815Z,292.08
2022-12-29T14:14:43.125Z,155.60
2022-12-29T14:17:14.890Z,48.13
2022-12-29T14:19:45.951Z,24.98
2022-12-29T14:22:13.850Z,23.85
2022-12-29T14:24:46.816Z,25.35
2022-12-29T14:27:14.601Z,17.05
2022-12-29T14:29:42.043Z,14.37
2022-12-29T14:32:27.609Z,18.87
2022-12-29T14:35:22.497Z,16.83
2022-12-29T14:38:15.875Z,14.63
2022-12-29T14:40:43.743Z,19.62
2022-12-29T14:43:21.707Z,21.17
2022-12-29T14:45:56.599Z,27.17
2022-12-29T14:48:40.472Z,34.47
2022-12-29T14:51:28.256Z,59.10
2022-12-29T14:53:55.887Z,48.03
2022-12-29T14:56:32.258Z,46.20
2022-12-29T14:59:04.830Z,37.83
2022-12-29T15:01:50.107Z,34.10
2022-12-29T15:04:24.325Z,36.85
2022-12-29T15:06:53.164Z,25.80
2022-12-29T15:09:51.879Z,33.13
2022-12-29T15:12:47.825Z,34.40
2022-12-29T15:15:22.313Z,16.00
2022-12-29T15:17:50.280Z,16.95
2022-12-29T15:20:17.939Z,14.65
2022-12-29T15:22:46.407Z,23.60
2022-12-29T15:25:18.215Z,21.50
2022-12-29T15:27:54.182Z,22.15
2022-12-29T15:30:22.124Z,16.92
2022-12-29T15:32:51.134Z,15.85
2022-12-29T15:35:32.697Z,23.87
2022-12-29T15:38:01.175Z,45.67
2022-12-29T15:40:31.607Z,63.22
2022-12-29T15:43:29.523Z,76.72
2022-12-29T15:45:57.424Z,81.43
2022-12-29T15:48:26.254Z,69.53
2022-12-29T15:50:53.970Z,42.65
2022-12-29T15:53:29.655Z,43.33
2022-12-29T15:56:06.971Z,54.83
2022-12-29T15:58:48.682Z,46.88
2022-12-29T16:01:28.632Z,35.10
2022-12-29T16:03:58.328Z,27.52
2022-12-29T16:06:35.435Z,21.98
2022-12-29T16:09:29.973Z,25.02
2022-12-29T16:12:01.952Z,25.17
2022-12-29T16:14:44.584Z,27.17
2022-12-29T16:17:22.581Z,35.08
2022-12-29T16:19:55.309Z,30.67
2022-12-29T16:22:37.885Z,42.88
2022-12-29T16:25:20.804Z,36.38
2022-12-29T16:27:48.521Z,26.43
2022-12-29T16:30:32.853Z,24.42
2022-12-29T16:33:04.536Z,22.73
2022-12-29T16:35:44.344Z,29.37
2022-12-29T16:38:16.588Z,27.45
2022-12-29T16:41:04.588Z,37.63
2022-12-29T16:43:42.790Z,29.12
2022-12-29T16:46:28.711Z,31.00
2022-12-29T16:48:57.554Z,25.27
2022-12-29T16:51:37.607Z,23.75
2022-12-29T16:54:05.720Z,28.57
2022-12-29T16:56:37.509Z,25.65
2022-12-29T16:59:23.866Z,20.80
2022-12-29T17:01:51.918Z,19.98
2022-12-29T17:04:19.453Z,21.95
2022-12-29T17:06:47.185Z,19.43
2022-12-29T17:09:19.638Z,20.15
2022-12-29T17:12:01.240Z,26.95
2022-12-29T17:14:43.020Z,23.17
2022-12-29T17:17:34.663Z,20.73
2022-12-29T17:20:20.766Z,19.43
2022-12-29T17:22:49.328Z,16.10
2022-12-29T17:25:38.092Z,19.02
2022-12-29T17:28:08.823Z,18.92
2022-12-29T17:30:36.817Z,21.05
2022-12-29T17:33:13.488Z,22.57
2022-12-29T17:35:41.644Z,21.12
2022-12-29T17:38:30.446Z,16.40
2022-12-29T17:40:58.850Z,19.70
2022-12-29T17:43:33.066Z,19.27
2022-12-29T17:46:07.095Z,16.30
2022-12-29T17:48:35.109Z,16.60
2022-12-29T17:51:02.790Z,17.15
2022-12-29T17:53:30.936Z,19.12
2022-12-29T17:55:58.733Z,31.10
2022-12-29T17:58:29.066Z,36.60
2022-12-29T18:00:59.669Z,25.77
2022-12-29T18:03:36.183Z,14.02
2022-12-29T18:06:08.110Z,15.02
2022-12-29T18:08:38.754Z,17.35
2022-12-29T18:11:26.975Z,24.90
2022-12-29T18:13:54.991Z,21.02
2022-12-29T18:16:23.777Z,17.17
2022-12-29T18:18:51.480Z,19.50
2022-12-29T18:21:22.261Z,13.80
2022-12-29T18:23:50.824Z,13.80
2022-12-29T18:26:28.091Z,17.92
2022-12-29T18:28:57.537Z,14.05
2022-12-29T18:31:30.368Z,13.80
2022-12-29T18:34:00.895Z,12.27
2022-12-29T18:36:29.179Z,14.63
2022-12-29T18:38:56.828Z,17.75
2022-12-29T18:41:29.013Z,15.90
2022-12-29T18:43:57.547Z,18.65
2022-12-29T18:46:25.658Z,20.35
2022-12-29T18:48:53.997Z,18.17
2022-12-29T18:51:24.146Z,18.85
2022-12-29T18:53:54.091Z,17.17
2022-12-29T18:56:23.703Z,13.50
2022-12-29T18:58:53.495Z,14.38
2022-12-29T19:01:27.961Z,12.73
2022-12-29T19:03:55.897Z,13.82
2022-12-29T19:06:23.783Z,15.50
2022-12-29T19:08:51.340Z,14.85
2022-12-29T19:11:18.913Z,17.12
2022-12-29T19:13:46.698Z,14.97
2022-12-29T19:16:20.125Z,16.48
2022-12-29T19:19:00.909Z,13.75
2022-12-29T19:21:37.790Z,18.17
2022-12-29T19:24:06.052Z,12.98
2022-12-29T19:26:36.801Z,13.07
2022-12-29T19:29:08.234Z,12.75
2022-12-29T19:31:37.547Z,15.77
2022-12-29T19:34:05.500Z,12.30
2022-12-29T19:36:33.725Z,14.13
2022-12-29T19:39:01.257Z,14.07
2022-12-29T19:41:29.112Z,13.30
2022-12-29T19:43:56.639Z,13.07
2022-12-29T19:46:25.509Z,14.60
2022-12-29T19:48:59.090Z,13.38
2022-12-29T19:51:27.690Z,14.97
2022-12-29T19:53:56.040Z,13.65
2022-12-29T19:56:23.653Z,11.68
2022-12-29T19:58:51.546Z,13.32
2022-12-29T20:01:24.005Z,11.15
2022-12-29T20:03:52.585Z,16.73
2022-12-29T20:06:20.483Z,15.00
2022-12-29T20:08:48.237Z,14.82
2022-12-29T20:11:18.378Z,15.43
2022-12-29T20:13:46.981Z,12.15
2022-12-29T20:16:17.554Z,14.93
2022-12-29T20:18:46.566Z,13.62
2022-12-29T20:21:16.887Z,17.50
2022-12-29T20:23:45.175Z,15.15
2022-12-29T20:26:25.522Z,15.85
2022-12-29T20:28:57.826Z,16.90
2022-12-29T20:31:31.340Z,17.67
2022-12-29T20:34:02.277Z,15.02
2022-12-29T20:36:33.104Z,19.12
2022-12-29T20:39:06.018Z,17.23
2022-12-29T20:41:34.364Z,13.83
2022-12-29T20:44:04.184Z,16.15
2022-12-29T20:46:36.716Z,12.40
2022-12-29T20:49:11.222Z,11.68
2022-12-29T20:52:05.122Z,14.40
2022-12-29T20:54:26.853Z,11.77
2022-12-29T20:56:55.298Z,12.88
2022-12-29T20:59:27.706Z,15.32
2022-12-29T21:01:57.132Z,17.65
2022-12-29T21:04:25.214Z,12.32
2022-12-29T21:06:52.969Z,15.33
2022-12-29T21:09:20.938Z,9.75
2022-12-29T21:11:48.621Z,9.02
2022-12-29T21:14:16.306Z,8.27
2022-12-29T21:16:44.305Z,10.38
2022-12-29T21:19:12.002Z,8.30
2022-12-29T21:21:39.599Z,8.30
2022-12-29T21:24:07.950Z,7.03
2022-12-29T21:26:35.856Z,7.87
2022-12-29T21:29:04.194Z,8.48
2022-12-29T21:31:34.858Z,11.30
2022-12-29T21:34:04.966Z,8.25
2022-12-29T21:36:33.616Z,9.77
2022-12-29T21:39:03.402Z,9.45
2022-12-29T21:41:31.968Z,8.57
2022-12-29T21:44:18.489Z,7.97
2022-12-29T21:46:47.872Z,11.43
2022-12-29T21:49:16.490Z,13.25
2022-12-29T21:51:57.562Z,11.57
2022-12-29T21:54:46.197Z,13.35
2022-12-29T21:57:35.278Z,12.90
2022-12-29T22:00:26.383Z,10.77
2022-12-29T22:03:22.070Z,11.20
2022-12-29T22:06:10.112Z,9.68
2022-12-29T22:08:57.522Z,11.32
2022-12-29T22:11:43.716Z,13.37
2022-12-29T22:14:11.482Z,13.43
2022-12-29T22:16:39.022Z,9.98
2022-12-29T22:19:08.740Z,10.38
2022-12-29T22:21:36.655Z,11.43
2022-12-29T22:24:04.378Z,11.00
2022-12-29T22:26:32.072Z,11.77
2022-12-29T22:29:00.162Z,12.10
2022-12-29T22:31:30.248Z,9.75
2022-12-29T22:33:59.943Z,10.20
2022-12-29T22:36:28.835Z,11.53
2022-12-29T22:38:56.660Z,11.73
2022-12-29T22:41:24.721Z,10.02
2022-12-29T22:43:52.724Z,7.70
2022-12-29T22:46:20.328Z,7.75
2022-12-29T22:48:47.945Z,7.87
2022-12-29T22:51:15.787Z,8.50
2022-12-29T22:53:43.321Z,10.45
2022-12-29T22:56:13.059Z,8.45
2022-12-29T22:58:46.355Z,8.65
2022-12-29T23:01:16.197Z,8.90
2022-12-29T23:03:44.701Z,7.43
2022-12-29T23:06:14.802Z,8.85
2022-12-29T23:08:43.514Z,8.40
2022-12-29T23:11:13.114Z,10.50
2022-12-29T23:13:41.716Z,6.37
2022-12-29T23:16:09.355Z,8.00
2022-12-29T23:18:37.582Z,10.82
2022-12-29T23:21:05.842Z,12.10
2022-12-29T23:23:52.362Z,11.27
2022-12-29T23:26:21.922Z,9.23
2022-12-29T23:28:51.518Z,13.15
2022-12-29T23:31:24.104Z,9.85
2022-12-29T23:33:52.199Z,12.70
2022-12-29T23:36:19.965Z,10.68
2022-12-29T23:38:47.859Z,13.30
2022-12-29T23:41:15.393Z,14.07
2022-12-29T23:43:42.896Z,18.77
2022-12-29T23:46:17.207Z,17.15
2022-12-29T23:48:44.772Z,14.38
2022-12-29T23:51:12.796Z,11.60
2022-12-29T23:53:42.368Z,11.25
2022-12-29T23:56:13.771Z,14.40
2022-12-29T23:58:41.690Z,10.90
